首页
METAR-TAF:

METAR-TAF

机场 :

坎佩切州, 墨西哥

纬度: 19-51N, 经度: 090-33W, 海拔: 5米

当前天气观测

该预报发布于9小时和47分钟前的00:40 UTC
风速15节,风向
温度 27°C
湿度 79%
气压 1011 hPa
能見度: 11.3公里
散云层高于2000英尺
散云层高于30000英尺

METAR: MMCP 020040Z 36015KT 7SM SCT020 SCT300 27/23 A2984 RMK 8/101 HZY

时间: 04:27 (10:27 UTC)

预报

该预报发布于5小时和11分钟前的05:16 UTC
预报有效从02日的 06点(UTC)到 03日的 06点(UTC)
风速8节,风向东转东南
能見度: 10公里
散云层高于2000英尺
从 02日的 2000点(UTC)
风速10节,风向北转西北
能見度: 10公里
散云层高于3000英尺
从 03日的 0000点(UTC)
风速15节,风向东转东南
能見度: 10公里
多云层高于1500英尺

TAF: MMCP 020516Z 0206/0306 12008KT P6SM SCT020 FM022000 34010KT P6SM SCT030 FM030000 12015KT P6SM BKN015

超过4000个机场的气象观测和天气预报(METAR&TAF报告)。

可查询的气象台以黄色和红色小点在地图上表示。

将鼠标移到小点上方,可查看气象台名称。

然后点击查看天气观测和预报。

如需切换地图:点击带黑十字的绿色按钮放大地图;点击带横线的绿色按钮缩小地图;或者点击绿色箭头查看邻近地区的地图。


METAR-TAF: